Time;durP1;ratioP1;P1;durP2;ratioP2;P2;SDS_P1;SDS_P2;PMS_P1;PMS_P2;Temp;Humidity;BMP_temperature;BMP_pressure;BME280_temperature;BME280_humidity;BME280_pressure;Samples;Min_cycle;Max_cycle;Signal;HPM_P1;HPM_P2
2021/05/13 00:01:49;;;;;;;17.58;13.52;;;10.40;99.90;;;;;;5097147;28;20102;-80
2021/05/13 00:04:16;;;;;;;14.38;12.00;;;10.40;99.90;;;;;;5100915;28;20059;-79
2021/05/13 00:06:43;;;;;;;15.77;12.63;;;10.30;99.90;;;;;;5106077;28;20052;-78
2021/05/13 00:09:11;;;;;;;16.67;12.52;;;10.30;99.90;;;;;;5112744;28;20389;-79
2021/05/13 00:11:42;;;;;;;16.27;12.82;;;10.30;99.90;;;;;;5112203;28;20040;-79
2021/05/13 00:14:10;;;;;;;21.13;14.18;;;10.30;99.90;;;;;;5111508;28;20040;-79
2021/05/13 00:16:37;;;;;;;23.60;14.85;;;10.30;99.90;;;;;;5110453;28;20059;-79
2021/05/13 00:19:08;;;;;;;17.73;13.10;;;10.20;99.90;;;;;;5109718;28;20131;-79
2021/05/13 00:21:36;;;;;;;16.10;14.05;;;10.20;99.90;;;;;;5108577;28;20062;-78
2021/05/13 00:24:04;;;;;;;19.40;13.27;;;10.30;99.90;;;;;;5106645;28;20484;-78
2021/05/13 00:26:48;;;;;;;17.52;13.13;;;10.40;99.90;;;;;;5107431;28;20048;-79
2021/05/13 00:29:26;;;;;;;18.17;14.57;;;10.30;99.90;;;;;;5105934;28;20067;-78
2021/05/13 00:31:53;;;;;;;17.50;13.90;;;10.30;99.90;;;;;;5106443;28;20051;-79
2021/05/13 00:34:20;;;;;;;20.27;14.13;;;10.40;99.90;;;;;;5108232;28;20044;-78
2021/05/13 00:36:47;;;;;;;17.38;13.65;;;10.40;99.90;;;;;;5109389;28;20048;-79
2021/05/13 00:39:13;;;;;;;17.50;13.65;;;10.40;99.90;;;;;;5110038;28;20044;-79
2021/05/13 00:41:40;;;;;;;18.13;12.95;;;10.40;99.90;;;;;;5090828;28;20075;-78
2021/05/13 00:44:07;;;;;;;15.68;12.40;;;10.40;99.90;;;;;;5107813;28;20052;-79
2021/05/13 00:46:35;;;;;;;14.82;11.70;;;10.50;99.90;;;;;;5107577;28;20070;-79
2021/05/13 00:49:09;;;;;;;17.10;12.25;;;10.40;99.90;;;;;;5107022;28;20044;-78
2021/05/13 00:51:36;;;;;;;16.23;11.60;;;10.50;99.90;;;;;;5106314;28;20052;-79
2021/05/13 00:54:04;;;;;;;14.68;10.93;;;10.50;99.90;;;;;;5107947;28;20035;-76
2021/05/13 00:56:32;;;;;;;14.77;11.07;;;10.40;99.90;;;;;;5113453;28;20048;-79
2021/05/13 00:59:03;;;;;;;15.30;11.45;;;10.50;99.90;;;;;;5113464;28;20044;-77
2021/05/13 01:04:06;;;;;;;14.30;11.55;;;10.50;99.90;;;;;;5112170;28;20032;-79
2021/05/13 01:06:34;;;;;;;11.27;9.68;;;10.50;99.90;;;;;;5110937;28;20051;-79
2021/05/13 01:09:07;;;;;;;13.40;10.15;;;10.40;99.90;;;;;;5111227;28;20055;-79
2021/05/13 01:11:40;;;;;;;11.68;9.27;;;10.40;99.90;;;;;;5092020;28;20032;-78
2021/05/13 01:14:17;;;;;;;14.45;9.55;;;10.40;99.90;;;;;;5091522;28;20044;-78
2021/05/13 01:16:59;;;;;;;15.63;9.65;;;10.30;99.90;;;;;;5089519;28;20515;-81
2021/05/13 01:19:26;;;;;;;11.10;8.57;;;10.30;99.90;;;;;;5107256;28;20126;-81
2021/05/13 01:21:53;;;;;;;12.00;8.18;;;10.30;99.90;;;;;;5104687;28;20055;-80
2021/05/13 01:24:20;;;;;;;11.55;8.82;;;10.30;99.90;;;;;;5087344;28;20055;-80
2021/05/13 01:26:48;;;;;;;11.48;8.27;;;10.20;99.90;;;;;;5106715;28;20051;-80
2021/05/13 01:29:21;;;;;;;10.63;9.00;;;10.20;99.90;;;;;;5106455;28;20052;-80
2021/05/13 01:31:49;;;;;;;9.85;8.25;;;10.20;99.90;;;;;;5086414;28;20064;-80
2021/05/13 01:34:17;;;;;;;17.35;8.20;;;10.10;99.90;;;;;;5106069;28;20412;-80
2021/05/13 01:36:44;;;;;;;10.57;8.50;;;10.10;99.90;;;;;;5104365;28;20047;-79
2021/05/13 01:39:12;;;;;;;15.68;10.38;;;10.00;99.90;;;;;;5104900;28;20074;-80
2021/05/13 01:41:41;;;;;;;9.98;7.90;;;10.00;99.90;;;;;;5102600;28;20063;-80
2021/05/13 01:44:09;;;;;;;15.85;9.75;;;9.90;99.90;;;;;;5103908;28;20070;-80
2021/05/13 01:46:37;;;;;;;11.18;8.50;;;9.90;99.90;;;;;;5102801;28;20489;-79
2021/05/13 01:49:06;;;;;;;10.95;9.40;;;9.90;99.90;;;;;;5103346;28;20127;-80
2021/05/13 01:51:33;;;;;;;10.77;8.52;;;10.00;99.90;;;;;;5104658;28;20048;-79
2021/05/13 01:54:00;;;;;;;12.20;6.55;;;10.10;99.90;;;;;;5103836;28;20079;-79
2021/05/13 01:56:26;;;;;;;18.38;8.95;;;10.00;99.90;;;;;;5091494;28;20044;-80
2021/05/13 01:58:53;;;;;;;9.43;7.72;;;10.00;99.90;;;;;;5111958;28;20059;-80
2021/05/13 02:01:20;;;;;;;8.73;7.40;;;10.00;99.90;;;;;;5110625;28;20069;-79
2021/05/13 02:03:47;;;;;;;7.90;7.13;;;10.00;99.90;;;;;;5107450;28;20059;-78
2021/05/13 02:06:13;;;;;;;7.75;7.05;;;10.00;99.90;;;;;;5087541;28;20044;-80
2021/05/13 02:08:40;;;;;;;7.43;6.70;;;10.10;99.90;;;;;;5106398;28;20146;-80
2021/05/13 02:11:07;;;;;;;9.50;6.70;;;10.10;99.90;;;;;;5106597;28;20078;-79
2021/05/13 02:13:34;;;;;;;8.77;6.53;;;10.10;99.90;;;;;;5104565;28;20103;-80
2021/05/13 02:16:00;;;;;;;10.02;6.88;;;10.10;99.90;;;;;;5086187;28;20060;-80
2021/05/13 02:18:27;;;;;;;9.02;6.65;;;10.10;99.90;;;;;;5104183;28;20143;-77
2021/05/13 02:20:54;;;;;;;7.63;5.90;;;10.10;99.90;;;;;;5106063;28;20048;-78
2021/05/13 02:23:21;;;;;;;7.22;5.95;;;10.00;99.90;;;;;;5104737;28;20127;-80
2021/05/13 02:25:50;;;;;;;6.80;6.20;;;10.00;99.90;;;;;;5086087;28;20427;-79
2021/05/13 02:28:17;;;;;;;10.65;6.68;;;10.00;99.90;;;;;;5092134;28;20056;-80
2021/05/13 02:30:44;;;;;;;7.93;6.35;;;10.00;99.90;;;;;;5109596;28;20052;-80
2021/05/13 02:33:11;;;;;;;8.50;6.22;;;10.00;99.90;;;;;;5108397;28;20052;-79
2021/05/13 02:35:39;;;;;;;7.35;6.15;;;10.00;99.90;;;;;;5089469;28;20420;-79
2021/05/13 02:38:06;;;;;;;6.22;5.60;;;10.00;99.90;;;;;;5106964;28;20058;-79
2021/05/13 02:40:33;;;;;;;6.30;5.70;;;10.00;99.90;;;;;;5106484;28;20083;-80
2021/05/13 02:42:59;;;;;;;7.15;6.28;;;10.00;99.90;;;;;;5088066;28;20051;-79
2021/05/13 02:45:26;;;;;;;10.77;6.18;;;10.00;99.90;;;;;;5086995;28;20224;-80
2021/05/13 02:47:53;;;;;;;6.45;5.93;;;10.00;99.90;;;;;;5087256;28;20072;-79
2021/05/13 02:50:19;;;;;;;9.43;5.78;;;9.90;99.90;;;;;;5086575;28;20048;-79
2021/05/13 02:52:46;;;;;;;10.70;5.80;;;10.00;99.90;;;;;;5104517;28;20142;-79
2021/05/13 02:55:13;;;;;;;12.00;6.05;;;9.90;99.90;;;;;;5106203;28;20044;-80
2021/05/13 02:57:41;;;;;;;8.93;6.20;;;9.90;99.90;;;;;;5106947;28;20102;-79
2021/05/13 03:00:29;;;;;;;8.85;6.07;;;9.90;99.90;;;;;;5091438;28;20488;-80
2021/05/13 03:02:56;;;;;;;9.63;5.88;;;9.90;99.90;;;;;;5109451;28;20062;-79
2021/05/13 03:05:26;;;;;;;12.00;6.43;;;9.90;99.90;;;;;;5109257;28;20063;-79
2021/05/13 03:08:03;;;;;;;9.82;6.57;;;9.90;99.90;;;;;;5090369;28;20518;-79
2021/05/13 03:12:57;;;;;;;9.48;6.55;;;9.90;99.90;;;;;;5107876;28;20040;-79
2021/05/13 03:15:25;;;;;;;6.95;6.30;;;9.90;99.90;;;;;;5106431;28;20071;-79
2021/05/13 03:17:52;;;;;;;7.32;6.63;;;9.90;99.90;;;;;;5106815;28;20040;-79
2021/05/13 03:20:24;;;;;;;10.05;6.43;;;9.80;99.90;;;;;;5088344;28;20047;-78
2021/05/13 03:22:55;;;;;;;7.35;6.43;;;9.80;99.90;;;;;;5106006;28;20044;-78
2021/05/13 03:25:28;;;;;;;7.63;6.50;;;9.70;99.90;;;;;;5105508;28;20072;-79
2021/05/13 03:28:06;;;;;;;6.50;5.05;;;9.80;99.90;;;;;;5104664;28;20052;-79
2021/05/13 03:30:45;;;;;;;8.23;5.88;;;9.80;99.90;;;;;;5086424;28;20074;-79
2021/05/13 03:33:13;;;;;;;8.32;5.85;;;9.80;99.90;;;;;;5085385;28;20438;-79
2021/05/13 03:35:40;;;;;;;6.05;5.07;;;9.80;99.90;;;;;;5104446;28;20044;-78
2021/05/13 03:38:08;;;;;;;10.05;5.50;;;9.60;99.90;;;;;;5104673;28;20048;-78
2021/05/13 03:40:35;;;;;;;6.63;5.70;;;9.60;99.90;;;;;;5103548;28;20048;-79
2021/05/13 03:43:03;;;;;;;6.82;5.95;;;9.60;99.90;;;;;;5104131;28;20401;-79
2021/05/13 03:45:30;;;;;;;9.85;6.40;;;9.70;99.90;;;;;;5110247;28;20047;-79
2021/05/13 03:48:02;;;;;;;8.32;6.03;;;9.70;99.90;;;;;;5114059;28;20048;-80
2021/05/13 03:50:34;;;;;;;8.77;6.15;;;9.70;99.90;;;;;;5095757;28;20051;-79
2021/05/13 03:53:02;;;;;;;9.15;7.30;;;9.70;99.90;;;;;;5112579;28;20040;-79
2021/05/13 03:55:29;;;;;;;6.80;5.22;;;9.70;99.90;;;;;;5111212;28;20048;-79
2021/05/13 03:57:57;;;;;;;9.00;5.70;;;9.70;99.90;;;;;;5093537;28;20420;-80
2021/05/13 04:00:47;;;;;;;8.95;5.80;;;9.60;99.90;;;;;;5090646;28;20048;-79
2021/05/13 04:03:14;;;;;;;9.75;5.97;;;9.60;99.90;;;;;;5108702;28;20504;-78
2021/05/13 04:05:41;;;;;;;5.55;4.93;;;9.70;99.90;;;;;;5108246;28;20052;-79
2021/05/13 04:08:09;;;;;;;7.32;4.97;;;9.70;99.90;;;;;;5107047;28;20078;-79
2021/05/13 04:10:36;;;;;;;6.78;4.82;;;9.70;99.90;;;;;;5106302;28;20083;-80
2021/05/13 04:13:06;;;;;;;5.85;4.32;;;9.80;99.90;;;;;;5103542;28;20495;-79
2021/05/13 04:15:51;;;;;;;6.10;3.65;;;9.70;99.90;;;;;;5105049;28;20055;-79
2021/05/13 04:18:18;;;;;;;5.70;3.95;;;9.70;99.90;;;;;;5108296;28;20048;-80
2021/05/13 04:20:45;;;;;;;4.22;3.92;;;9.70;99.90;;;;;;5110862;28;20044;-80
2021/05/13 04:23:11;;;;;;;4.68;3.92;;;9.70;99.90;;;;;;5111565;28;20113;-79
2021/05/13 04:25:38;;;;;;;4.60;4.13;;;9.70;99.90;;;;;;5109541;28;20076;-78
2021/05/13 04:28:05;;;;;;;6.47;3.85;;;9.70;99.90;;;;;;5109908;28;20044;-79
2021/05/13 04:30:32;;;;;;;6.07;4.22;;;9.80;99.90;;;;;;5112542;28;20048;-79
2021/05/13 04:32:59;;;;;;;8.32;3.63;;;9.80;99.90;;;;;;5112822;28;20044;-79
2021/05/13 04:35:26;;;;;;;3.58;3.20;;;9.80;99.90;;;;;;5111880;28;20040;-79
2021/05/13 04:37:53;;;;;;;4.97;3.78;;;9.80;99.90;;;;;;5112126;28;20193;-79
2021/05/13 04:40:20;;;;;;;4.25;3.60;;;9.90;99.90;;;;;;5110593;28;20089;-79
2021/05/13 04:42:46;;;;;;;4.20;3.83;;;10.00;99.90;;;;;;5091930;28;20083;-77
2021/05/13 04:45:13;;;;;;;3.80;3.13;;;10.10;99.90;;;;;;5109971;28;20055;-79
2021/05/13 04:50:10;;;;;;;3.92;2.85;;;10.20;99.90;;;;;;5105338;28;20047;-80
2021/05/13 04:52:39;;;;;;;3.67;2.63;;;10.30;99.90;;;;;;5108486;28;20082;-79
2021/05/13 04:55:07;;;;;;;3.30;3.00;;;10.20;99.90;;;;;;5089111;28;20074;-79
2021/05/13 04:57:35;;;;;;;4.50;3.47;;;10.30;99.90;;;;;;5088026;28;20047;-79
2021/05/13 05:00:09;;;;;;;2.97;2.78;;;10.30;99.90;;;;;;5107791;28;20053;-78
2021/05/13 05:02:36;;;;;;;2.72;2.55;;;10.30;99.90;;;;;;5106241;28;20044;-79
2021/05/13 05:05:05;;;;;;;3.47;3.17;;;10.30;99.90;;;;;;5087560;28;20085;-78
2021/05/13 05:07:31;;;;;;;3.10;2.90;;;10.30;99.90;;;;;;5105278;28;20044;-79
2021/05/13 05:09:58;;;;;;;2.97;2.78;;;10.40;99.90;;;;;;5086633;28;20044;-79
2021/05/13 05:12:25;;;;;;;3.35;3.03;;;10.50;99.90;;;;;;5104893;28;20097;-79
2021/05/13 05:14:52;;;;;;;3.17;2.97;;;10.50;99.90;;;;;;5104190;28;20492;-79
2021/05/13 05:17:18;;;;;;;3.30;3.00;;;10.50;99.90;;;;;;5103200;28;20048;-78
2021/05/13 05:19:45;;;;;;;5.13;3.38;;;10.60;99.90;;;;;;5102597;28;20044;-79
2021/05/13 05:22:13;;;;;;;5.95;3.60;;;10.80;99.90;;;;;;5103607;28;20044;-79
2021/05/13 05:24:39;;;;;;;5.78;3.33;;;10.90;99.90;;;;;;5102553;28;20401;-79
2021/05/13 05:27:06;;;;;;;4.22;3.38;;;10.90;99.90;;;;;;5105581;28;20466;-79
2021/05/13 05:29:33;;;;;;;5.45;3.42;;;11.00;99.90;;;;;;5105293;28;20052;-79
2021/05/13 05:32:00;;;;;;;14.70;4.05;;;11.10;99.90;;;;;;5105549;28;20118;-79
2021/05/13 05:34:26;;;;;;;10.25;3.72;;;11.20;99.90;;;;;;5107365;28;20040;-79
2021/05/13 05:36:53;;;;;;;11.23;3.85;;;11.20;99.90;;;;;;5109761;28;20048;-80
2021/05/13 05:39:21;;;;;;;9.88;3.80;;;11.30;99.90;;;;;;5107206;28;20074;-79
2021/05/13 05:41:48;;;;;;;5.07;3.45;;;11.40;99.90;;;;;;5106745;28;20044;-79
2021/05/13 05:44:15;;;;;;;6.72;3.45;;;11.60;99.90;;;;;;5106131;28;20154;-78
2021/05/13 05:46:41;;;;;;;3.67;2.88;;;11.70;99.90;;;;;;5086953;28;20048;-78
2021/05/13 05:49:08;;;;;;;5.07;2.72;;;11.60;99.90;;;;;;5086580;28;20051;-80
2021/05/13 05:51:35;;;;;;;6.35;3.50;;;11.70;99.90;;;;;;5104179;28;20050;-78
2021/05/13 05:54:02;;;;;;;4.78;3.20;;;11.70;99.90;;;;;;5103594;28;20044;-79
2021/05/13 05:56:29;;;;;;;5.75;3.33;;;11.70;99.90;;;;;;5102342;28;20051;-79
2021/05/13 05:58:56;;;;;;;8.30;5.15;;;11.70;99.90;;;;;;5101396;28;20075;-79
2021/05/13 06:01:23;;;;;;;3.55;3.20;;;11.80;99.90;;;;;;5100652;28;20048;-78
2021/05/13 06:03:49;;;;;;;4.25;3.20;;;11.80;99.90;;;;;;5082071;28;20048;-79
2021/05/13 06:06:16;;;;;;;4.43;4.03;;;11.70;99.90;;;;;;5100922;28;20075;-79
2021/05/13 06:08:44;;;;;;;4.38;3.97;;;11.80;99.90;;;;;;5081195;28;20063;-79
2021/05/13 06:11:12;;;;;;;4.28;2.60;;;11.80;99.90;;;;;;5086622;28;20067;-80
2021/05/13 06:13:39;;;;;;;7.13;3.25;;;11.90;99.90;;;;;;5104547;28;20496;-80
2021/05/13 06:16:05;;;;;;;8.35;2.60;;;12.00;99.90;;;;;;5102162;28;20048;-79
2021/05/13 06:18:47;;;;;;;3.70;2.45;;;12.10;99.90;;;;;;5103682;28;20067;-80
2021/05/13 06:21:13;;;;;;;3.05;2.20;;;12.10;99.90;;;;;;5102717;28;20051;-79
2021/05/13 06:23:55;;;;;;;2.85;2.38;;;12.10;99.90;;;;;;5101639;28;20512;-79
2021/05/13 06:26:24;;;;;;;2.15;1.95;;;12.10;99.90;;;;;;5100582;28;20422;-79
2021/05/13 06:28:59;;;;;;;4.03;2.40;;;12.10;99.90;;;;;;5102090;28;20044;-79
2021/05/13 06:31:26;;;;;;;2.58;2.28;;;12.20;99.90;;;;;;5105291;28;20527;-80
2021/05/13 06:33:54;;;;;;;4.00;2.40;;;12.20;99.90;;;;;;5085548;28;20131;-80
2021/05/13 06:36:21;;;;;;;4.80;2.15;;;12.30;99.90;;;;;;5103976;28;20072;-79
2021/05/13 06:38:47;;;;;;;3.42;2.60;;;12.40;99.90;;;;;;5102853;28;20094;-80
2021/05/13 06:41:14;;;;;;;3.63;3.33;;;12.50;99.90;;;;;;5102624;28;20097;-79
2021/05/13 06:43:41;;;;;;;3.08;2.60;;;12.50;99.90;;;;;;5083551;28;20190;-79
2021/05/13 06:46:09;;;;;;;2.83;2.53;;;12.50;99.90;;;;;;5101462;28;20074;-79
2021/05/13 06:48:37;;;;;;;2.85;2.67;;;12.50;99.90;;;;;;5100848;28;20511;-79
2021/05/13 06:51:04;;;;;;;3.47;2.58;;;12.50;99.90;;;;;;5101218;28;20071;-77
2021/05/13 06:53:31;;;;;;;4.15;2.67;;;12.60;99.90;;;;;;5100192;28;20047;-79
2021/05/13 06:55:58;;;;;;;4.50;2.88;;;12.60;99.90;;;;;;5081750;28;20389;-79
2021/05/13 06:58:24;;;;;;;4.35;2.47;;;12.50;99.90;;;;;;5081228;28;20385;-79
2021/05/13 07:00:51;;;;;;;4.50;2.92;;;12.30;99.90;;;;;;5080807;28;20047;-79
2021/05/13 07:03:18;;;;;;;5.38;2.50;;;12.40;99.90;;;;;;5080947;28;20420;-79
2021/05/13 07:05:45;;;;;;;3.13;2.30;;;12.50;99.90;;;;;;5079956;28;20079;-78
2021/05/13 07:08:11;;;;;;;5.90;2.67;;;12.50;99.90;;;;;;5098718;28;20491;-79
2021/05/13 07:10:39;;;;;;;8.25;2.63;;;12.60;99.90;;;;;;5098639;28;20123;-79
2021/05/13 07:13:06;;;;;;;3.22;2.53;;;12.60;99.90;;;;;;5098536;28;20052;-79
2021/05/13 07:15:33;;;;;;;3.45;2.95;;;12.60;99.90;;;;;;5079454;28;20566;-77
2021/05/13 07:18:00;;;;;;;4.50;2.80;;;12.60;99.90;;;;;;5097547;28;20131;-80
2021/05/13 07:20:27;;;;;;;4.55;3.28;;;12.60;99.90;;;;;;5077952;28;20048;-79
2021/05/13 07:22:54;;;;;;;5.75;3.95;;;12.80;99.90;;;;;;5099702;28;20130;-80
2021/05/13 07:25:21;;;;;;;3.95;3.40;;;12.80;99.90;;;;;;5106923;28;20044;-80
2021/05/13 07:27:51;;;;;;;13.73;9.77;;;12.90;99.90;;;;;;5088159;28;20500;-80
2021/05/13 07:30:18;;;;;;;6.15;2.97;;;13.00;99.90;;;;;;5105831;28;20462;-79
2021/05/13 07:32:46;;;;;;;3.75;2.42;;;13.10;99.90;;;;;;5103435;28;20083;-80
2021/05/13 07:35:16;;;;;;;4.07;2.90;;;13.20;99.90;;;;;;5102746;28;20052;-79
2021/05/13 07:37:44;;;;;;;2.60;2.38;;;13.30;99.90;;;;;;5104444;28;20079;-79
2021/05/13 07:40:12;;;;;;;4.10;2.50;;;13.30;99.90;;;;;;5102999;28;20044;-80
2021/05/13 07:42:39;;;;;;;3.03;1.90;;;13.10;99.90;;;;;;5102525;28;20044;-79
2021/05/13 07:45:07;;;;;;;3.20;2.47;;;13.00;99.90;;;;;;5102381;28;20048;-78
2021/05/13 07:47:38;;;;;;;2.88;2.40;;;13.10;99.90;;;;;;5083428;28;20052;-79
2021/05/13 07:50:09;;;;;;;2.33;2.17;;;12.90;99.90;;;;;;5082729;28;20052;-79
2021/05/13 07:52:36;;;;;;;4.57;2.25;;;12.90;99.90;;;;;;5101587;28;20048;-79
2021/05/13 07:55:04;;;;;;;3.38;2.05;;;12.90;99.90;;;;;;5102294;28;20497;-78
2021/05/13 07:57:31;;;;;;;1.80;1.70;;;12.90;99.90;;;;;;5101827;28;20044;-79
2021/05/13 07:59:57;;;;;;;2.55;2.35;;;12.90;99.90;;;;;;5101443;28;20090;-78
2021/05/13 08:02:24;;;;;;;2.17;1.95;;;12.90;99.90;;;;;;5103435;28;20048;-78
2021/05/13 08:04:51;;;;;;;4.88;2.38;;;13.00;99.90;;;;;;5087635;28;20071;-79
2021/05/13 08:07:20;;;;;;;2.90;2.00;;;13.10;99.90;;;;;;5090192;28;20052;-79
2021/05/13 08:09:47;;;;;;;2.42;2.17;;;13.10;99.90;;;;;;5103003;28;20178;-79
2021/05/13 08:12:15;;;;;;;3.53;2.00;;;13.00;99.90;;;;;;5085664;28;20090;-79
2021/05/13 08:14:42;;;;;;;2.42;2.22;;;13.00;99.90;;;;;;5102535;28;20082;-79
2021/05/13 08:17:09;;;;;;;3.17;1.80;;;13.10;99.90;;;;;;5085121;28;20068;-79
2021/05/13 08:19:36;;;;;;;2.28;2.08;;;13.20;99.90;;;;;;5101564;28;20047;-79
2021/05/13 08:22:03;;;;;;;3.60;2.05;;;13.20;99.90;;;;;;5102052;28;20107;-79
2021/05/13 08:24:30;;;;;;;2.63;2.08;;;13.40;99.90;;;;;;5100327;28;20068;-79
2021/05/13 08:27:00;;;;;;;6.20;2.50;;;13.60;99.90;;;;;;5099967;28;20101;-79
2021/05/13 08:29:30;;;;;;;3.15;2.40;;;13.70;99.90;;;;;;5080908;28;20059;-79
2021/05/13 08:31:58;;;;;;;3.38;2.80;;;13.70;99.90;;;;;;5098651;28;20044;-79
2021/05/13 08:34:25;;;;;;;2.35;2.22;;;13.60;99.90;;;;;;5080300;28;20048;-79
2021/05/13 08:36:54;;;;;;;4.65;2.33;;;13.60;99.90;;;;;;5098430;28;20079;-79
2021/05/13 08:39:23;;;;;;;3.28;2.63;;;13.50;99.90;;;;;;5080965;28;20143;-79
2021/05/13 08:41:50;;;;;;;2.95;2.20;;;13.50;99.90;;;;;;5079905;28;20048;-79
2021/05/13 08:44:18;;;;;;;3.65;2.20;;;13.60;99.90;;;;;;5079554;28;20048;-79
2021/05/13 08:46:45;;;;;;;3.03;2.70;;;14.00;99.90;;;;;;5080040;28;20143;-77
2021/05/13 08:49:12;;;;;;;3.33;2.90;;;14.00;99.90;;;;;;5097346;28;20052;-79
2021/05/13 08:51:39;;;;;;;2.63;2.47;;;14.10;99.90;;;;;;5096690;28;20078;-79
2021/05/13 08:54:07;;;;;;;3.53;3.20;;;13.90;99.90;;;;;;5096462;28;20051;-79
2021/05/13 08:56:34;;;;;;;6.18;3.17;;;13.80;99.90;;;;;;5097138;28;20044;-79
2021/05/13 08:59:04;;;;;;;4.90;3.00;;;13.60;99.90;;;;;;5096385;28;20558;-79
2021/05/13 09:01:33;;;;;;;5.47;3.17;;;13.70;99.90;;;;;;5096551;28;20485;-79
2021/05/13 09:04:02;;;;;;;4.68;3.40;;;13.90;99.90;;;;;;5094857;28;20055;-80
2021/05/13 09:06:44;;;;;;;6.75;3.30;;;13.80;99.90;;;;;;5095200;28;20090;-80
2021/05/13 09:09:13;;;;;;;7.78;4.32;;;13.70;99.90;;;;;;5095583;28;20075;-77
2021/05/13 09:11:51;;;;;;;4.07;3.63;;;14.00;99.90;;;;;;5095220;28;20044;-79
2021/05/13 09:14:27;;;;;;;3.30;3.10;;;14.20;99.90;;;;;;5081240;28;20560;-80
2021/05/13 09:16:59;;;;;;;8.25;4.53;;;14.20;99.90;;;;;;5082938;28;20039;-78
2021/05/13 09:19:34;;;;;;;7.30;3.90;;;14.00;99.90;;;;;;5081310;28;20048;-79
2021/05/13 09:22:04;;;;;;;5.60;4.80;;;13.90;99.90;;;;;;5097368;28;20048;-77
2021/05/13 09:24:46;;;;;;;6.47;5.25;;;13.90;99.90;;;;;;5079897;28;20492;-80
2021/05/13 09:27:30;;;;;;;42.38;30.63;;;13.80;99.90;;;;;;5097385;28;20076;-79
2021/05/13 09:30:16;;;;;;;8.48;5.90;;;14.00;99.90;;;;;;5096395;28;20054;-78
2021/05/13 09:32:48;;;;;;;5.80;3.53;;;14.30;99.90;;;;;;5077927;28;20052;-80
2021/05/13 09:35:27;;;;;;;5.50;3.72;;;14.30;99.90;;;;;;5077871;28;20048;-79
2021/05/13 09:37:57;;;;;;;5.22;3.35;;;14.40;99.90;;;;;;5077413;28;20101;-77
2021/05/13 09:40:37;;;;;;;3.80;3.22;;;14.60;99.90;;;;;;5076730;28;20052;-79
2021/05/13 09:43:33;;;;;;;3.67;3.13;;;14.50;99.90;;;;;;5094895;28;20541;-77
2021/05/13 09:46:03;;;;;;;4.28;3.15;;;14.20;99.90;;;;;;5092767;28;20105;-79
2021/05/13 09:48:33;;;;;;;3.53;3.15;;;14.00;99.90;;;;;;5094305;28;20070;-79
2021/05/13 09:51:25;;;;;;;5.85;3.45;;;13.60;99.90;;;;;;5094788;28;20044;-79
2021/05/13 09:54:10;;;;;;;4.10;3.40;;;13.20;99.90;;;;;;5098504;28;20093;-79
2021/05/13 09:56:38;;;;;;;4.22;3.60;;;13.10;99.90;;;;;;5097829;28;20048;-79
2021/05/13 09:59:27;;;;;;;5.53;4.53;;;13.20;99.90;;;;;;5097919;28;20044;-79
2021/05/13 10:01:56;;;;;;;6.57;4.85;;;13.30;99.90;;;;;;5080194;28;20401;-79
2021/05/13 10:04:24;;;;;;;6.72;5.07;;;13.70;99.90;;;;;;5083238;28;20052;-79
2021/05/13 10:06:51;;;;;;;32.50;21.92;;;14.00;99.90;;;;;;5101523;28;20079;-79
2021/05/13 10:09:20;;;;;;;3.65;1.90;;;14.00;99.90;;;;;;5103272;28;20140;-80
2021/05/13 10:11:52;;;;;;;5.75;2.75;;;14.10;99.90;;;;;;5102500;28;20055;-79
2021/05/13 10:14:20;;;;;;;4.53;1.75;;;14.40;99.90;;;;;;5101834;28;20048;-79
2021/05/13 10:16:53;;;;;;;10.18;2.13;;;14.50;99.90;;;;;;5101541;28;20129;-79
2021/05/13 10:19:26;;;;;;;8.15;1.95;;;14.60;99.90;;;;;;5084920;28;20054;-79
2021/05/13 10:21:54;;;;;;;1.35;1.25;;;14.50;99.90;;;;;;5083814;28;20077;-79
2021/05/13 10:24:21;;;;;;;4.18;1.50;;;14.40;99.90;;;;;;5101318;28;20139;-79
2021/05/13 10:26:49;;;;;;;7.40;1.50;;;14.40;99.90;;;;;;5083379;28;20055;-79
2021/05/13 10:29:20;;;;;;;5.97;3.08;;;14.10;99.90;;;;;;5083131;28;20097;-79
2021/05/13 10:34:40;;;;;;;4.57;3.50;;;13.50;99.90;;;;;;5100409;28;20047;-79
2021/05/13 10:37:11;;;;;;;2.17;1.17;;;13.40;99.90;;;;;;5082729;28;20044;-79
2021/05/13 10:40:15;;;;;;;4.22;0.93;;;13.40;99.90;;;;;;5100610;28;20519;-79
2021/05/13 10:42:44;;;;;;;9.90;2.17;;;13.50;99.90;;;;;;5082731;28;20052;-78
2021/05/13 10:45:23;;;;;;;1.75;1.20;;;13.40;99.90;;;;;;5100802;28;20044;-80
2021/05/13 10:48:23;;;;;;;2.03;1.38;;;13.40;99.90;;;;;;5100367;28;20105;-79
2021/05/13 10:51:01;;;;;;;3.20;1.10;;;13.30;99.90;;;;;;5099628;28;20102;-78
2021/05/13 10:53:34;;;;;;;6.43;1.35;;;13.40;99.90;;;;;;5082099;28;20086;-79
2021/05/13 10:56:30;;;;;;;3.75;1.65;;;13.50;99.90;;;;;;5099932;28;20044;-79
2021/05/13 10:59:14;;;;;;;3.53;1.50;;;13.30;99.90;;;;;;5081719;28;20488;-78
2021/05/13 11:01:51;;;;;;;5.55;1.45;;;13.30;99.90;;;;;;5101140;28;20082;-79
2021/05/13 11:04:24;;;;;;;3.53;1.50;;;13.50;99.90;;;;;;5085025;28;20101;-79
2021/05/13 11:06:57;;;;;;;3.50;1.98;;;13.50;99.90;;;;;;5084106;28;20481;-80
2021/05/13 11:12:14;;;;;;;2.75;1.42;;;14.00;99.90;;;;;;5100684;28;20044;-79
2021/05/13 11:15:05;;;;;;;1.98;1.13;;;14.00;99.90;;;;;;5080661;28;20132;-78
2021/05/13 11:20:30;;;;;;;;;;;14.20;99.90;;;;;;5098602;28;20443;-79
2021/05/13 11:23:20;;;;;;;4.10;1.15;;;14.20;99.90;;;;;;5097433;28;20376;-79
2021/05/13 11:25:58;;;;;;;2.60;1.17;;;14.50;99.90;;;;;;5079048;28;20167;-79
2021/05/13 11:28:33;;;;;;;3.95;1.10;;;14.30;99.90;;;;;;5079882;28;20109;-79
2021/05/13 11:31:06;;;;;;;4.88;1.15;;;14.20;99.90;;;;;;5097403;28;20044;-79
2021/05/13 11:33:39;;;;;;;3.83;1.33;;;14.20;99.90;;;;;;5097452;28;20078;-78
2021/05/13 11:36:08;;;;;;;5.25;1.35;;;14.00;99.90;;;;;;5097512;28;20091;-79
2021/05/13 11:38:36;;;;;;;2.25;1.10;;;14.10;99.90;;;;;;5079032;28;20151;-78
2021/05/13 11:41:04;;;;;;;3.20;1.48;;;14.30;99.90;;;;;;5096804;28;20052;-79
2021/05/13 11:43:33;;;;;;;2.08;1.10;;;14.40;99.90;;;;;;5099470;28;20044;-78
2021/05/13 11:46:04;;;;;;;0.98;0.98;;;14.10;99.90;;;;;;5100272;28;20044;-80
2021/05/13 11:48:42;;;;;;;4.80;1.27;;;14.40;99.90;;;;;;5100163;28;20054;-79
2021/05/13 11:51:10;;;;;;;4.05;1.65;;;14.30;99.90;;;;;;5097773;28;20493;-80
2021/05/13 11:53:39;;;;;;;2.05;1.27;;;14.20;99.90;;;;;;5097590;28;20090;-79
2021/05/13 11:56:07;;;;;;;4.93;1.40;;;14.40;99.90;;;;;;5097234;28;20044;-79
2021/05/13 11:58:45;;;;;;;5.50;1.48;;;14.80;99.90;;;;;;5097125;28;20067;-79
2021/05/13 12:01:20;;;;;;;4.10;1.27;;;15.00;99.90;;;;;;5078432;28;20470;-79
2021/05/13 12:03:49;;;;;;;4.07;1.20;;;15.30;99.90;;;;;;5095736;28;20044;-78
2021/05/13 12:06:16;;;;;;;5.80;1.40;;;15.20;99.90;;;;;;5077721;28;20527;-79
2021/05/13 12:08:42;;;;;;;2.67;1.02;;;15.20;99.90;;;;;;5096180;28;20048;-78
2021/05/13 12:11:36;;;;;;;7.55;4.07;;;15.10;99.90;;;;;;5084112;28;20135;-79
2021/05/13 12:14:08;;;;;;;9.07;4.72;;;14.50;99.90;;;;;;5099686;28;20044;-79
2021/05/13 12:16:36;;;;;;;3.45;1.25;;;14.40;99.90;;;;;;5102996;28;20090;-79
2021/05/13 12:19:06;;;;;;;2.17;0.90;;;14.30;99.90;;;;;;5085019;28;20044;-77
2021/05/13 12:21:35;;;;;;;2.22;1.08;;;14.40;99.90;;;;;;5084591;28;20048;-78
2021/05/13 12:24:04;;;;;;;5.78;1.45;;;14.50;99.90;;;;;;5102637;28;20043;-78
2021/05/13 12:26:34;;;;;;;5.90;1.52;;;14.40;99.90;;;;;;5084003;28;20052;-78
2021/05/13 12:29:04;;;;;;;2.33;1.58;;;14.10;99.90;;;;;;5084723;28;20444;-78
2021/05/13 12:31:36;;;;;;;4.32;1.38;;;14.00;99.90;;;;;;5081272;28;20076;-79
2021/05/13 12:34:05;;;;;;;3.30;1.30;;;14.20;99.90;;;;;;5097848;28;20476;-79
2021/05/13 12:36:33;;;;;;;4.03;1.15;;;14.40;99.90;;;;;;5097793;28;20102;-79
2021/05/13 12:39:06;;;;;;;2.67;1.58;;;14.60;99.90;;;;;;5097126;28;20067;-79
2021/05/13 12:41:33;;;;;;;4.15;1.40;;;14.90;99.90;;;;;;5097412;28;20048;-79
2021/05/13 12:44:06;;;;;;;5.15;1.55;;;15.30;99.90;;;;;;5079301;28;20107;-79
2021/05/13 12:46:45;;;;;;;5.93;2.42;;;15.50;99.90;;;;;;5097638;28;20055;-79
2021/05/13 12:49:25;;;;;;;5.32;1.65;;;15.20;99.90;;;;;;5079878;28;20071;-79
2021/05/13 12:51:58;;;;;;;13.43;6.40;;;15.10;99.90;;;;;;5097403;28;20048;-80
2021/05/13 12:54:25;;;;;;;19.48;12.82;;;14.80;99.90;;;;;;5097372;28;20052;-80
2021/05/13 12:57:07;;;;;;;3.53;2.22;;;14.40;99.90;;;;;;5098231;28;20048;-79
2021/05/13 12:59:34;;;;;;;3.00;1.50;;;14.30;99.90;;;;;;5079602;28;20078;-79
2021/05/13 13:02:01;;;;;;;10.38;6.75;;;14.20;99.90;;;;;;5079409;28;20412;-80
2021/05/13 13:04:46;;;;;;;46.67;32.85;;;14.00;99.90;;;;;;5079472;28;20076;-80
2021/05/13 13:07:13;;;;;;;9.68;3.03;;;13.90;99.90;;;;;;5080001;28;20044;-80
2021/05/13 13:09:40;;;;;;;168.20;103.45;;;13.90;99.90;;;;;;5078752;28;20090;-79
2021/05/13 13:12:10;;;;;;;30.83;19.75;;;13.70;99.90;;;;;;5097806;28;20566;-80
2021/05/13 13:14:58;;;;;;;18.95;13.07;;;13.60;99.90;;;;;;5097754;28;20079;-80
2021/05/13 13:17:32;;;;;;;9.98;7.55;;;13.50;99.90;;;;;;5099326;28;20040;-81